createdAt,value
2018-12-05T00:01:52.184Z,3.73
2018-12-05T00:04:22.136Z,3.83
2018-12-05T00:06:52.206Z,4.63
2018-12-05T00:09:22.060Z,5.33
2018-12-05T00:11:52.150Z,4.40
2018-12-05T00:14:22.255Z,4.43
2018-12-05T00:16:52.237Z,3.90
2018-12-05T00:19:22.181Z,3.30
2018-12-05T00:21:52.306Z,3.47
2018-12-05T00:24:22.326Z,4.23
2018-12-05T00:26:52.393Z,3.13
2018-12-05T00:29:22.317Z,3.10
2018-12-05T00:31:52.374Z,3.10
2018-12-05T00:34:22.320Z,3.80
2018-12-05T00:36:52.243Z,5.70
2018-12-05T00:39:22.409Z,5.50
2018-12-05T00:41:52.327Z,3.87
2018-12-05T00:44:22.756Z,4.77
2018-12-05T00:46:52.688Z,4.10
2018-12-05T00:49:22.687Z,4.37
2018-12-05T00:51:52.583Z,3.60
2018-12-05T00:54:22.496Z,3.80
2018-12-05T00:56:52.404Z,5.13
2018-12-05T00:59:22.437Z,3.70
2018-12-05T01:01:52.477Z,3.67
2018-12-05T01:04:22.471Z,6.40
2018-12-05T01:06:52.584Z,8.70
2018-12-05T01:09:22.619Z,5.13
2018-12-05T01:11:52.561Z,6.00
2018-12-05T01:14:22.517Z,4.27
2018-12-05T01:16:52.475Z,4.57
2018-12-05T01:19:22.819Z,5.70
2018-12-05T01:21:52.875Z,5.93
2018-12-05T01:24:23.049Z,7.13
2018-12-05T01:26:53.425Z,8.23
2018-12-05T01:29:23.429Z,7.50
2018-12-05T01:31:53.454Z,6.70
2018-12-05T01:34:23.380Z,5.53
2018-12-05T01:36:53.357Z,17.57
2018-12-05T01:39:23.282Z,10.73
2018-12-05T01:41:53.450Z,16.30
2018-12-05T01:44:23.419Z,8.83
2018-12-05T01:46:53.440Z,11.37
2018-12-05T01:49:23.368Z,9.03
2018-12-05T01:51:53.464Z,10.63
2018-12-05T01:54:23.504Z,8.77
2018-12-05T01:56:53.606Z,8.07
2018-12-05T01:59:23.617Z,7.90
2018-12-05T02:01:53.698Z,7.00
2018-12-05T02:04:23.687Z,6.43
2018-12-05T02:06:53.978Z,6.50
2018-12-05T02:09:23.933Z,10.93
2018-12-05T02:11:54.093Z,20.20
2018-12-05T02:14:24.027Z,10.30
2018-12-05T02:16:54.829Z,7.73
2018-12-05T02:19:24.797Z,7.30
2018-12-05T02:21:54.818Z,6.90
2018-12-05T02:24:24.901Z,8.50
2018-12-05T02:26:54.853Z,9.63
2018-12-05T02:29:26.661Z,9.00
2018-12-05T02:32:02.720Z,11.23
2018-12-05T02:34:32.749Z,27.40
2018-12-05T02:37:02.719Z,30.50
2018-12-05T02:39:32.775Z,6.07
2018-12-05T02:42:03.075Z,5.80
2018-12-05T02:44:33.121Z,5.00
2018-12-05T02:47:03.111Z,4.00
2018-12-05T02:49:33.138Z,4.20
2018-12-05T02:52:03.145Z,3.63
2018-12-05T02:54:33.175Z,4.50
2018-12-05T02:57:03.179Z,2.73
2018-12-05T02:59:33.306Z,3.23
2018-12-05T03:02:03.368Z,3.53
2018-12-05T03:04:33.353Z,4.30
2018-12-05T03:07:03.454Z,10.53
2018-12-05T03:09:34.083Z,10.83
2018-12-05T03:12:04.193Z,5.80
2018-12-05T03:14:34.213Z,3.43
2018-12-05T03:17:04.166Z,3.40
2018-12-05T03:19:34.117Z,4.47
2018-12-05T03:22:04.306Z,4.47
2018-12-05T03:24:41.069Z,3.80
2018-12-05T03:27:11.073Z,3.13
2018-12-05T03:29:40.999Z,3.13
2018-12-05T03:32:10.979Z,3.27
2018-12-05T03:34:40.907Z,5.03
2018-12-05T03:37:10.898Z,3.73
2018-12-05T03:39:41.014Z,6.33
2018-12-05T03:42:11.050Z,3.73
2018-12-05T03:44:41.017Z,4.07
2018-12-05T03:47:10.978Z,3.70
2018-12-05T03:49:43.115Z,4.80
2018-12-05T03:52:13.004Z,3.97
2018-12-05T03:54:42.970Z,5.33
2018-12-05T03:57:12.973Z,5.03
2018-12-05T03:59:42.837Z,7.13
2018-12-05T04:02:12.904Z,8.23
2018-12-05T04:04:42.839Z,9.57
2018-12-05T04:07:12.828Z,8.03
2018-12-05T04:09:42.766Z,6.40
2018-12-05T04:12:12.848Z,7.10
2018-12-05T04:14:42.829Z,5.27
2018-12-05T04:17:13.607Z,4.87
2018-12-05T04:19:43.696Z,5.90
2018-12-05T04:22:13.635Z,6.50
2018-12-05T04:24:43.599Z,5.60
2018-12-05T04:27:13.566Z,5.27
2018-12-05T04:29:43.499Z,6.43
2018-12-05T04:32:13.700Z,6.20
2018-12-05T04:34:43.808Z,5.00
2018-12-05T04:37:13.834Z,5.57
2018-12-05T04:39:43.845Z,4.43
2018-12-05T04:42:13.865Z,4.33
2018-12-05T04:44:43.783Z,4.43
2018-12-05T04:47:13.733Z,4.60
2018-12-05T04:49:43.581Z,4.43
2018-12-05T04:52:13.504Z,3.90
2018-12-05T04:54:43.619Z,5.70
2018-12-05T04:57:13.944Z,4.83
2018-12-05T04:59:43.966Z,8.10
2018-12-05T05:02:13.974Z,7.90
2018-12-05T05:04:43.908Z,10.03
2018-12-05T05:07:13.948Z,7.83
2018-12-05T05:09:43.930Z,7.23
2018-12-05T05:12:14.033Z,6.67
2018-12-05T05:14:44.057Z,5.23
2018-12-05T05:17:14.165Z,5.53
2018-12-05T05:19:44.041Z,4.70
2018-12-05T05:22:14.013Z,4.57
2018-12-05T05:24:44.108Z,8.13
2018-12-05T05:27:14.189Z,11.23
2018-12-05T05:29:44.140Z,7.67
2018-12-05T05:32:14.258Z,8.87
2018-12-05T05:34:44.285Z,10.43
2018-12-05T05:37:14.641Z,9.03
2018-12-05T05:39:44.619Z,9.60
2018-12-05T05:42:14.738Z,12.37
2018-12-05T05:44:44.953Z,10.30
2018-12-05T05:47:15.267Z,16.33
2018-12-05T05:49:45.178Z,14.70
2018-12-05T05:52:15.093Z,16.03
2018-12-05T05:54:45.015Z,19.83
2018-12-05T05:57:14.979Z,14.87
2018-12-05T05:59:44.971Z,13.83
2018-12-05T06:02:15.066Z,13.03
2018-12-05T06:04:45.174Z,13.50
2018-12-05T06:07:15.085Z,12.40
2018-12-05T06:09:45.061Z,10.90
2018-12-05T06:12:15.125Z,8.60
2018-12-05T06:14:45.235Z,11.30
2018-12-05T06:17:15.166Z,15.93
2018-12-05T06:19:45.248Z,12.40
2018-12-05T06:22:15.211Z,8.90
2018-12-05T06:24:45.198Z,7.50
2018-12-05T06:27:15.215Z,7.90
2018-12-05T06:29:45.184Z,8.83
2018-12-05T06:32:15.144Z,7.57
2018-12-05T06:34:45.161Z,7.90
2018-12-05T06:37:15.131Z,7.07
2018-12-05T06:39:45.072Z,8.50
2018-12-05T06:42:15.507Z,13.17
2018-12-05T06:44:45.549Z,10.77
2018-12-05T06:47:15.480Z,7.10
2018-12-05T06:49:45.420Z,8.27
2018-12-05T06:52:15.466Z,8.43
2018-12-05T06:54:45.372Z,7.40
2018-12-05T06:57:15.299Z,7.17
2018-12-05T06:59:45.228Z,7.10
2018-12-05T07:02:15.318Z,6.53
2018-12-05T07:04:45.281Z,8.10
2018-12-05T07:07:15.191Z,7.50
2018-12-05T07:09:45.160Z,8.33
2018-12-05T14:34:09.182Z,8.30
2018-12-05T14:36:39.122Z,7.90
2018-12-05T14:39:09.160Z,8.73
2018-12-05T14:41:39.129Z,7.33
2018-12-05T14:44:12.172Z,10.47
2018-12-05T14:46:42.176Z,11.70
2018-12-05T14:49:12.221Z,12.30
2018-12-05T14:51:42.128Z,15.23
2018-12-05T14:54:12.162Z,16.93
2018-12-05T14:56:42.180Z,18.47
2018-12-05T14:59:12.797Z,18.93
2018-12-05T15:01:42.618Z,17.40
2018-12-05T15:04:12.664Z,16.83
2018-12-05T15:06:42.852Z,16.87
2018-12-05T15:09:12.736Z,16.00
2018-12-05T15:11:43.399Z,19.10
2018-12-05T15:14:13.523Z,29.20
2018-12-05T15:16:43.667Z,32.70
2018-12-05T15:19:13.765Z,31.03
2018-12-05T15:21:43.687Z,35.60
2018-12-05T15:24:13.683Z,34.57
2018-12-05T15:26:43.630Z,36.50
2018-12-05T15:29:13.705Z,63.73
2018-12-05T15:31:43.749Z,56.03
2018-12-05T15:34:13.730Z,64.57
2018-12-05T15:36:43.727Z,55.77
2018-12-05T15:39:13.962Z,59.67
2018-12-05T15:41:44.003Z,69.73
2018-12-05T15:44:14.016Z,70.03
2018-12-05T15:46:44.090Z,63.87
2018-12-05T15:49:14.146Z,63.03
2018-12-05T15:51:44.133Z,53.33
2018-12-05T15:54:14.099Z,38.30
2018-12-05T15:56:44.191Z,42.70
2018-12-05T15:59:14.069Z,47.07
2018-12-05T16:01:44.066Z,35.63
2018-12-05T16:04:13.986Z,31.90
2018-12-05T16:06:43.896Z,30.03
2018-12-05T16:09:13.989Z,27.07
2018-12-05T16:11:43.879Z,26.43
2018-12-05T16:14:13.911Z,21.83
2018-12-05T16:16:44.015Z,24.50
2018-12-05T16:19:13.930Z,33.63
2018-12-05T16:21:43.934Z,31.50
2018-12-05T16:24:13.974Z,30.93
2018-12-05T16:26:45.028Z,32.20
2018-12-05T16:29:15.132Z,31.60
2018-12-05T16:31:45.173Z,41.03
2018-12-05T16:34:15.244Z,60.73
2018-12-05T16:36:45.306Z,76.70
2018-12-05T16:39:15.375Z,74.27
2018-12-05T16:41:45.391Z,62.70
2018-12-05T16:44:15.319Z,51.77
2018-12-05T16:46:45.418Z,48.43
2018-12-05T16:49:15.438Z,47.90
2018-12-05T16:51:45.424Z,48.43
2018-12-05T16:54:15.398Z,49.90
2018-12-05T16:56:45.370Z,47.47
2018-12-05T16:59:15.328Z,44.63
2018-12-05T17:01:45.362Z,46.23
2018-12-05T17:04:15.273Z,41.47
2018-12-05T17:06:45.312Z,42.43
2018-12-05T17:09:15.248Z,43.57
2018-12-05T17:11:45.221Z,41.80
2018-12-05T17:14:15.284Z,39.13
2018-12-05T17:16:48.265Z,36.27
2018-12-05T17:19:18.234Z,37.93
2018-12-05T17:21:48.190Z,42.23
2018-12-05T17:24:18.163Z,45.03
2018-12-05T17:26:48.126Z,51.20
2018-12-05T17:29:18.134Z,57.40
2018-12-05T17:31:48.156Z,55.43
2018-12-05T17:34:18.140Z,53.27
2018-12-05T17:36:48.924Z,43.53
2018-12-05T17:39:18.915Z,44.50
2018-12-05T17:41:48.826Z,38.57
2018-12-05T17:44:18.939Z,39.60
2018-12-05T17:46:48.855Z,35.00
2018-12-05T17:49:18.768Z,31.97
2018-12-05T17:51:48.725Z,31.23
2018-12-05T17:54:18.728Z,30.60
2018-12-05T17:56:48.712Z,31.07
2018-12-05T17:59:18.736Z,28.23
2018-12-05T18:01:48.716Z,33.80
2018-12-05T18:04:18.849Z,29.57
2018-12-05T18:06:48.874Z,25.70
2018-12-05T18:09:18.784Z,25.37
2018-12-05T18:11:48.778Z,25.70
2018-12-05T18:14:21.794Z,26.53
2018-12-05T18:16:51.802Z,37.03
2018-12-05T18:19:21.777Z,50.23
2018-12-05T18:21:51.955Z,56.80
2018-12-05T18:24:21.972Z,82.10
2018-12-05T18:26:52.008Z,58.23
2018-12-05T18:29:21.958Z,55.43
2018-12-05T18:31:52.189Z,50.83
2018-12-05T18:34:23.464Z,41.70
2018-12-05T18:36:53.585Z,41.33
2018-12-05T18:39:23.428Z,41.17
2018-12-05T18:41:53.593Z,42.97
2018-12-05T18:44:23.576Z,55.90
2018-12-05T18:46:53.618Z,56.57
2018-12-05T18:49:24.624Z,52.53
2018-12-05T18:51:54.788Z,48.00
2018-12-05T18:54:28.054Z,52.40
2018-12-05T18:57:00.339Z,47.93
2018-12-05T18:59:31.418Z,45.40
2018-12-05T19:02:04.524Z,42.70
2018-12-05T19:04:34.381Z,41.17
2018-12-05T19:07:04.429Z,37.77
2018-12-05T19:09:34.468Z,42.33
2018-12-05T19:12:04.632Z,43.93
2018-12-05T19:17:19.457Z,61.40
2018-12-05T19:19:49.534Z,64.90
2018-12-05T19:22:21.892Z,67.63
2018-12-05T19:24:55.030Z,66.20
2018-12-05T19:27:26.098Z,68.80
2018-12-05T19:29:59.631Z,69.77
2018-12-05T19:32:32.603Z,74.67
2018-12-05T19:35:06.620Z,70.73
2018-12-05T19:37:36.579Z,69.67
2018-12-05T19:40:10.349Z,75.57
2018-12-05T19:45:40.731Z,71.40
2018-12-05T19:48:17.197Z,68.47
2018-12-05T19:50:48.486Z,73.00
2018-12-05T19:53:19.762Z,67.77
2018-12-05T19:55:50.458Z,68.67
2018-12-05T19:58:21.846Z,69.87
2018-12-05T20:00:52.737Z,64.07
2018-12-05T20:03:24.454Z,64.93
2018-12-05T20:05:55.432Z,64.03
2018-12-05T20:08:27.835Z,62.63
2018-12-05T20:11:03.154Z,62.37
2018-12-05T20:13:36.085Z,71.10
2018-12-05T20:16:06.518Z,77.77
2018-12-05T20:18:36.539Z,85.43
2018-12-05T20:21:07.162Z,92.90
2018-12-05T20:23:38.765Z,90.17
2018-12-05T20:26:08.912Z,89.83
2018-12-05T20:28:39.926Z,91.63
2018-12-05T20:31:12.599Z,93.23
2018-12-05T20:33:43.175Z,83.93
2018-12-05T20:36:14.206Z,89.50
2018-12-05T20:38:46.006Z,98.60
2018-12-05T20:41:17.033Z,98.23
2018-12-05T20:43:46.939Z,100.20
2018-12-05T20:46:18.004Z,92.83
2018-12-05T20:48:52.279Z,95.47
2018-12-05T20:51:22.848Z,91.90
2018-12-05T20:53:53.028Z,91.20
2018-12-05T20:56:23.148Z,94.27
2018-12-05T20:58:54.355Z,100.40
2018-12-05T21:01:31.427Z,103.00
2018-12-05T21:04:01.588Z,97.80
2018-12-05T21:06:31.612Z,102.27
2018-12-05T21:09:01.612Z,104.00
2018-12-05T21:11:34.707Z,102.43
2018-12-05T21:14:04.931Z,101.03
2018-12-05T21:16:35.043Z,98.27
2018-12-05T21:19:05.357Z,92.57
2018-12-05T21:21:35.488Z,91.87
2018-12-05T21:24:08.543Z,90.73
2018-12-05T21:26:38.590Z,90.23
2018-12-05T21:29:08.620Z,88.87
2018-12-05T21:31:38.828Z,86.87
2018-12-05T21:34:08.797Z,87.83
2018-12-05T21:36:38.958Z,91.27
2018-12-05T21:39:10.206Z,93.00
2018-12-05T21:41:40.308Z,104.63
2018-12-05T21:44:10.312Z,94.53
2018-12-05T21:46:40.441Z,91.93
2018-12-05T21:49:10.508Z,90.87
2018-12-05T21:51:40.788Z,91.73
2018-12-05T21:54:10.791Z,98.87
2018-12-05T21:56:40.931Z,99.53
2018-12-05T21:59:10.938Z,91.13
2018-12-05T22:01:40.942Z,91.53
2018-12-05T22:04:10.880Z,91.77
2018-12-05T22:06:40.988Z,97.60
2018-12-05T22:09:11.804Z,89.10
2018-12-05T22:11:41.760Z,89.03
2018-12-05T22:14:11.723Z,85.10
2018-12-05T22:16:41.710Z,93.53
2018-12-05T22:19:11.732Z,96.30
2018-12-05T22:21:41.603Z,100.67
2018-12-05T22:24:11.593Z,96.23
2018-12-05T22:26:41.820Z,87.43
2018-12-05T22:29:11.843Z,93.77
2018-12-05T22:31:42.035Z,93.13
2018-12-05T22:34:12.090Z,92.83
2018-12-05T22:36:42.211Z,100.23
2018-12-05T22:39:12.208Z,104.23
2018-12-05T22:41:42.465Z,104.07
2018-12-05T22:44:11.318Z,101.53
2018-12-05T22:46:42.691Z,104.73
2018-12-05T22:49:12.754Z,97.43
2018-12-05T22:51:42.798Z,95.63
2018-12-05T22:54:12.909Z,95.93
2018-12-05T22:56:47.216Z,91.87
2018-12-05T22:59:17.537Z,88.10
2018-12-05T23:01:47.561Z,89.30
2018-12-05T23:04:17.552Z,88.73
2018-12-05T23:06:47.562Z,86.67
2018-12-05T23:09:17.600Z,78.97
2018-12-05T23:11:47.728Z,81.23
2018-12-05T23:14:17.849Z,78.33
2018-12-05T23:16:47.881Z,79.17
2018-12-05T23:19:17.978Z,82.30
2018-12-05T23:21:47.993Z,81.17
2018-12-05T23:24:18.105Z,77.07
2018-12-05T23:26:48.142Z,77.00
2018-12-05T23:29:18.077Z,76.13
2018-12-05T23:31:48.062Z,79.77
2018-12-05T23:34:18.169Z,81.37
2018-12-05T23:36:48.166Z,82.33
2018-12-05T23:39:18.198Z,84.80
2018-12-05T23:41:48.125Z,81.67
2018-12-05T23:44:18.128Z,79.87
2018-12-05T23:46:48.064Z,86.57
2018-12-05T23:49:18.160Z,87.10
2018-12-05T23:51:48.270Z,87.27
2018-12-05T23:54:18.367Z,85.50
2018-12-05T23:56:48.403Z,84.77
2018-12-05T23:59:18.416Z,82.37
